createdAt,value
2022-12-13T00:02:27.820Z,100.00
2022-12-13T00:05:00.279Z,100.00
2022-12-13T00:07:34.849Z,100.00
2022-12-13T00:10:08.105Z,100.00
2022-12-13T00:12:42.131Z,100.00
2022-12-13T00:15:14.675Z,100.00
2022-12-13T00:17:47.185Z,100.00
2022-12-13T00:20:20.060Z,100.00
2022-12-13T00:22:54.049Z,100.00
2022-12-13T00:25:26.490Z,100.00
2022-12-13T00:27:59.032Z,100.00
2022-12-13T00:30:34.742Z,100.00
2022-12-13T00:33:07.630Z,100.00
2022-12-13T00:35:43.575Z,100.00
2022-12-13T00:38:15.915Z,100.00
2022-12-13T00:40:48.752Z,100.00
2022-12-13T00:43:21.256Z,100.00
2022-12-13T00:45:53.793Z,99.75
2022-12-13T00:48:26.255Z,99.95
2022-12-13T00:50:58.849Z,99.88
2022-12-13T00:53:31.375Z,99.63
2022-12-13T00:56:04.681Z,99.68
2022-12-13T00:58:38.616Z,99.83
2022-12-13T01:01:15.783Z,100.00
2022-12-13T01:03:48.210Z,100.00
2022-12-13T01:06:24.385Z,99.76
2022-12-13T01:08:56.936Z,100.00
2022-12-13T01:11:30.108Z,99.87
2022-12-13T01:14:02.686Z,100.00
2022-12-13T01:16:35.249Z,100.00
2022-12-13T01:19:07.844Z,100.00
2022-12-13T01:21:40.348Z,100.00
2022-12-13T01:24:13.485Z,100.00
2022-12-13T01:26:45.967Z,100.00
2022-12-13T01:29:19.837Z,100.00
2022-12-13T01:31:53.023Z,100.00
2022-12-13T01:34:28.517Z,100.00
2022-12-13T01:37:00.896Z,100.00
2022-12-13T01:39:38.025Z,100.00
2022-12-13T01:42:07.675Z,100.00
2022-12-13T01:45:06.391Z,100.00
2022-12-13T01:47:48.752Z,100.00
2022-12-13T01:50:25.851Z,100.00
2022-12-13T01:53:00.243Z,100.00
2022-12-13T01:55:32.944Z,100.00
2022-12-13T01:58:06.016Z,100.00
2022-12-13T02:00:40.860Z,100.00
2022-12-13T02:03:21.388Z,100.00
2022-12-13T02:06:00.541Z,100.00
2022-12-13T02:08:35.951Z,100.00
2022-12-13T02:11:08.073Z,100.00
2022-12-13T02:13:41.388Z,100.00
2022-12-13T02:16:37.694Z,100.00
2022-12-13T02:20:00.176Z,100.00
2022-12-13T02:22:52.764Z,100.00
2022-12-13T02:26:16.586Z,100.00
2022-12-13T02:29:13.156Z,100.00
2022-12-13T02:32:01.707Z,100.00
2022-12-13T02:35:00.957Z,100.00
2022-12-13T02:37:50.272Z,100.00
2022-12-13T02:40:31.605Z,100.00
2022-12-13T02:43:23.132Z,100.00
2022-12-13T02:46:00.889Z,100.00
2022-12-13T02:48:38.389Z,100.00
2022-12-13T02:51:12.188Z,100.00
2022-12-13T02:53:46.509Z,100.00
2022-12-13T02:56:18.973Z,100.00
2022-12-13T02:58:54.517Z,100.00
2022-12-13T03:02:09.734Z,100.00
2022-12-13T03:05:06.255Z,100.00
2022-12-13T03:08:05.008Z,100.00
2022-12-13T03:10:45.828Z,100.00
2022-12-13T03:13:38.213Z,100.00
2022-12-13T03:16:31.157Z,100.00
2022-12-13T03:19:05.847Z,100.00
2022-12-13T03:21:49.746Z,100.00
2022-12-13T03:24:22.793Z,100.00
2022-12-13T03:26:55.113Z,100.00
2022-12-13T03:29:27.475Z,100.00
2022-12-13T03:32:00.317Z,100.00
2022-12-13T03:34:43.742Z,100.00
2022-12-13T03:37:07.057Z,100.00
2022-12-13T03:39:39.790Z,100.00
2022-12-13T03:42:12.252Z,100.00
2022-12-13T03:44:45.193Z,100.00
2022-12-13T03:47:17.666Z,100.00
2022-12-13T03:49:54.121Z,100.00
2022-12-13T03:52:24.887Z,100.00
2022-12-13T03:54:57.701Z,100.00
2022-12-13T03:57:30.054Z,100.00
2022-12-13T04:00:04.553Z,100.00
2022-12-13T04:02:38.882Z,100.00
2022-12-13T04:05:11.487Z,100.00
2022-12-13T04:07:48.257Z,100.00
2022-12-13T04:10:26.296Z,100.00
2022-12-13T04:13:11.484Z,100.00
2022-12-13T04:15:49.227Z,100.00
2022-12-13T04:18:21.827Z,100.00
2022-12-13T04:20:54.437Z,100.00
2022-12-13T04:23:27.893Z,100.00
2022-12-13T04:26:01.087Z,100.00
2022-12-13T04:28:33.794Z,100.00
2022-12-13T04:31:06.552Z,100.00
2022-12-13T04:33:39.174Z,100.00
2022-12-13T04:36:14.644Z,100.00
2022-12-13T04:38:49.006Z,100.00
2022-12-13T04:41:22.036Z,100.00
2022-12-13T04:43:56.169Z,100.00
2022-12-13T04:46:28.841Z,100.00
2022-12-13T04:49:02.065Z,100.00
2022-12-13T04:51:35.025Z,100.00
2022-12-13T04:54:23.860Z,100.00
2022-12-13T04:56:42.792Z,100.00
2022-12-13T04:59:16.268Z,100.00
2022-12-13T05:01:49.082Z,100.00
2022-12-13T05:04:21.460Z,100.00
2022-12-13T05:06:54.094Z,100.00
2022-12-13T05:09:26.782Z,100.00
2022-12-13T05:12:01.533Z,100.00
2022-12-13T05:14:33.687Z,100.00
2022-12-13T05:17:07.189Z,100.00
2022-12-13T05:19:39.637Z,100.00
2022-12-13T05:22:20.847Z,100.00
2022-12-13T05:24:52.675Z,100.00
2022-12-13T05:27:26.882Z,100.00
2022-12-13T05:30:03.700Z,100.00
2022-12-13T05:32:44.005Z,100.00
2022-12-13T05:35:22.443Z,100.00
2022-12-13T05:37:53.333Z,100.00
2022-12-13T05:40:26.487Z,100.00
2022-12-13T05:43:01.658Z,100.00
2022-12-13T05:45:33.576Z,100.00
2022-12-13T05:48:06.505Z,100.00
2022-12-13T05:50:39.648Z,100.00
2022-12-13T05:53:12.626Z,100.00
2022-12-13T05:55:45.384Z,100.00
2022-12-13T05:58:23.261Z,100.00
2022-12-13T06:00:51.834Z,100.00
2022-12-13T06:03:24.442Z,100.00
2022-12-13T06:05:56.849Z,100.00
2022-12-13T06:08:30.222Z,100.00
2022-12-13T06:11:10.662Z,100.00
2022-12-13T06:13:42.318Z,100.00
2022-12-13T06:16:23.479Z,100.00
2022-12-13T06:18:47.802Z,100.00
2022-12-13T06:21:21.888Z,100.00
2022-12-13T06:23:54.412Z,100.00
2022-12-13T06:26:26.733Z,100.00
2022-12-13T06:28:59.584Z,100.00
2022-12-13T06:31:32.083Z,100.00
2022-12-13T06:34:13.776Z,100.00
2022-12-13T06:36:41.009Z,100.00
2022-12-13T06:39:15.169Z,100.00
2022-12-13T06:41:47.570Z,100.00
2022-12-13T06:44:20.020Z,100.00
2022-12-13T06:46:52.500Z,100.00
2022-12-13T06:49:26.861Z,100.00
2022-12-13T06:52:01.375Z,100.00
2022-12-13T06:54:34.128Z,100.00
2022-12-13T06:57:06.556Z,100.00
2022-12-13T06:59:40.070Z,100.00
2022-12-13T07:02:24.489Z,100.00
2022-12-13T07:04:47.028Z,100.00
2022-12-13T07:07:19.503Z,100.00
2022-12-13T07:09:51.986Z,100.00
2022-12-13T07:12:24.972Z,100.00
2022-12-13T07:14:57.698Z,100.00
2022-12-13T07:17:31.969Z,100.00
2022-12-13T07:20:09.361Z,100.00
2022-12-13T07:22:47.851Z,100.00
2022-12-13T07:25:27.926Z,100.00
2022-12-13T07:27:51.595Z,100.00
2022-12-13T07:30:24.124Z,100.00
2022-12-13T07:32:56.619Z,100.00
2022-12-13T07:35:29.786Z,100.00
2022-12-13T07:38:02.331Z,100.00
2022-12-13T07:40:38.671Z,100.00
2022-12-13T07:43:13.144Z,100.00
2022-12-13T07:45:46.613Z,100.00
2022-12-13T07:48:20.286Z,100.00
2022-12-13T07:50:54.755Z,100.00
2022-12-13T07:53:27.081Z,100.00
2022-12-13T07:56:01.139Z,100.00
2022-12-13T07:58:36.799Z,100.00
2022-12-13T08:01:12.236Z,100.00
2022-12-13T08:03:44.672Z,100.00
2022-12-13T08:06:18.885Z,100.00
2022-12-13T08:08:51.961Z,100.00
2022-12-13T08:11:24.642Z,100.00
2022-12-13T08:13:57.848Z,100.00
2022-12-13T08:16:30.772Z,100.00
2022-12-13T08:19:04.534Z,100.00
2022-12-13T08:21:57.826Z,100.00
2022-12-13T08:24:15.867Z,100.00
2022-12-13T08:26:48.526Z,100.00
2022-12-13T08:29:22.819Z,100.00
2022-12-13T08:31:55.595Z,100.00
2022-12-13T08:34:29.556Z,100.00
2022-12-13T08:37:04.233Z,100.00
2022-12-13T08:39:39.029Z,99.25
2022-12-13T08:42:19.845Z,99.50
2022-12-13T08:44:54.122Z,99.59
2022-12-13T08:47:27.852Z,99.48
2022-12-13T08:50:02.251Z,99.02
2022-12-13T08:52:39.801Z,97.46
2022-12-13T08:55:16.816Z,96.72
2022-12-13T08:57:50.192Z,95.34
2022-12-13T09:00:22.877Z,94.92
2022-12-13T09:03:16.923Z,94.59
2022-12-13T09:05:49.474Z,94.67
2022-12-13T09:08:24.320Z,94.48
2022-12-13T09:11:10.486Z,94.10
2022-12-13T09:13:43.190Z,94.19
2022-12-13T09:16:23.383Z,93.44
2022-12-13T09:18:56.495Z,93.10
2022-12-13T09:21:31.697Z,92.83
2022-12-13T09:24:04.515Z,92.70
2022-12-13T09:26:38.797Z,91.15
2022-12-13T09:29:11.968Z,90.13
2022-12-13T09:31:49.632Z,89.94
2022-12-13T09:34:19.327Z,90.48
2022-12-13T09:36:51.787Z,90.44
2022-12-13T09:39:26.052Z,90.46
2022-12-13T09:42:00.910Z,90.19
2022-12-13T09:44:44.042Z,90.15
2022-12-13T09:47:23.174Z,89.22
2022-12-13T09:49:53.614Z,89.25
2022-12-13T09:52:26.371Z,89.32
2022-12-13T09:55:00.645Z,89.76
2022-12-13T09:57:34.441Z,89.13
2022-12-13T10:00:11.765Z,89.62
2022-12-13T10:02:57.467Z,90.15
2022-12-13T10:05:39.456Z,89.32
2022-12-13T10:08:16.950Z,89.39
2022-12-13T10:10:50.872Z,89.35
2022-12-13T10:14:10.602Z,88.93
2022-12-13T10:16:50.219Z,88.29
2022-12-13T10:19:41.202Z,88.27
2022-12-13T10:22:16.546Z,88.24
2022-12-13T10:24:59.808Z,88.50
2022-12-13T10:27:41.932Z,87.90
2022-12-13T10:30:28.712Z,88.19
2022-12-13T10:33:07.406Z,87.71
2022-12-13T10:35:51.685Z,87.97
2022-12-13T10:38:31.901Z,87.83
2022-12-13T10:41:04.699Z,86.93
2022-12-13T10:43:38.351Z,87.64
2022-12-13T10:46:14.700Z,88.38
2022-12-13T10:48:52.337Z,88.13
2022-12-13T10:51:25.020Z,87.86
2022-12-13T10:53:59.564Z,88.44
2022-12-13T10:56:53.650Z,88.65
2022-12-13T10:59:37.837Z,89.00
2022-12-13T11:02:33.333Z,89.70
2022-12-13T11:05:29.827Z,89.83
2022-12-13T11:08:26.632Z,89.86
2022-12-13T11:11:04.703Z,89.31
2022-12-13T11:13:46.642Z,89.76
2022-12-13T11:16:29.205Z,89.32
2022-12-13T11:19:12.107Z,89.62
2022-12-13T11:21:49.234Z,89.73
2022-12-13T11:24:50.433Z,89.64
2022-12-13T11:27:48.656Z,89.77
2022-12-13T11:30:40.670Z,89.94
2022-12-13T11:33:33.002Z,90.12
2022-12-13T11:36:25.399Z,90.12
2022-12-13T11:39:08.711Z,90.25
2022-12-13T11:41:53.361Z,91.28
2022-12-13T11:44:30.768Z,91.63
2022-12-13T11:47:03.857Z,91.45
2022-12-13T11:49:42.464Z,91.29
2022-12-13T11:52:30.209Z,91.07
2022-12-13T11:55:31.348Z,90.99
2022-12-13T11:58:32.600Z,90.42
2022-12-13T12:01:00.101Z,90.47
2022-12-13T12:03:50.139Z,90.79
2022-12-13T12:06:30.776Z,91.46
2022-12-13T12:09:07.352Z,90.49
2022-12-13T12:12:02.604Z,90.53
2022-12-13T12:14:58.157Z,91.54
2022-12-13T12:17:37.852Z,90.78
2022-12-13T12:20:10.069Z,90.90
2022-12-13T12:22:58.480Z,90.58
2022-12-13T12:26:08.041Z,90.61
2022-12-13T12:28:57.344Z,90.33
2022-12-13T12:31:51.048Z,90.08
2022-12-13T12:34:45.529Z,90.12
2022-12-13T12:37:53.707Z,90.37
2022-12-13T12:41:18.053Z,92.01
2022-12-13T12:43:45.148Z,92.78
2022-12-13T12:47:18.050Z,92.45
2022-12-13T12:49:40.353Z,92.63
2022-12-13T12:52:35.433Z,92.60
2022-12-13T12:55:18.451Z,92.75
2022-12-13T12:58:01.519Z,93.20
2022-12-13T13:01:03.136Z,92.67
2022-12-13T13:03:37.977Z,92.19
2022-12-13T13:06:24.619Z,92.32
2022-12-13T13:09:07.637Z,92.81
2022-12-13T13:11:43.260Z,92.91
2022-12-13T13:14:33.919Z,93.53
2022-12-13T13:17:29.154Z,93.38
2022-12-13T13:20:24.367Z,93.60
2022-12-13T13:23:38.975Z,93.33
2022-12-13T13:25:43.956Z,93.57
2022-12-13T13:28:20.242Z,93.05
2022-12-13T13:31:10.174Z,93.01
2022-12-13T13:33:48.625Z,93.58
2022-12-13T13:36:46.761Z,93.78
2022-12-13T13:39:30.769Z,93.14
2022-12-13T13:42:19.232Z,93.28
2022-12-13T13:45:13.275Z,93.23
2022-12-13T13:47:45.619Z,93.46
2022-12-13T13:50:31.656Z,93.79
2022-12-13T13:53:50.180Z,93.65
2022-12-13T13:56:50.046Z,93.59
2022-12-13T13:59:51.645Z,92.86
2022-12-13T14:02:52.043Z,92.79
2022-12-13T14:06:00.207Z,93.56
2022-12-13T14:08:49.960Z,93.13
2022-12-13T14:12:06.186Z,93.31
2022-12-13T14:15:01.898Z,93.71
2022-12-13T14:18:21.493Z,94.08
2022-12-13T14:21:25.697Z,93.95
2022-12-13T14:24:17.597Z,94.09
2022-12-13T14:27:15.498Z,94.24
2022-12-13T14:29:58.705Z,94.54
2022-12-13T14:32:28.806Z,94.60
2022-12-13T14:35:26.260Z,94.89
2022-12-13T14:37:37.968Z,95.22
2022-12-13T14:40:27.235Z,95.32
2022-12-13T14:42:59.664Z,95.07
2022-12-13T14:45:36.751Z,95.49
2022-12-13T14:48:31.712Z,95.68
2022-12-13T14:51:04.941Z,95.67
2022-12-13T14:53:41.758Z,95.71
2022-12-13T14:56:27.637Z,96.08
2022-12-13T14:59:00.068Z,96.28
2022-12-13T15:01:36.656Z,96.73
2022-12-13T15:04:29.628Z,97.16
2022-12-13T15:07:16.103Z,96.76
2022-12-13T15:09:48.553Z,96.76
2022-12-13T15:12:24.540Z,97.06
2022-12-13T15:15:03.548Z,98.32
2022-12-13T15:17:40.866Z,98.45
2022-12-13T15:20:30.862Z,99.34
2022-12-13T15:23:15.835Z,99.18
2022-12-13T15:25:55.175Z,98.65
2022-12-13T15:28:30.579Z,98.29
2022-12-13T15:31:02.936Z,98.16
2022-12-13T15:33:42.546Z,97.32
2022-12-13T15:36:27.259Z,97.79
2022-12-13T15:39:03.043Z,97.93
2022-12-13T15:41:38.053Z,97.89
2022-12-13T15:44:40.278Z,97.53
2022-12-13T15:47:28.513Z,97.33
2022-12-13T15:49:59.370Z,97.16
2022-12-13T15:52:39.766Z,97.33
2022-12-13T15:55:19.479Z,97.19
2022-12-13T15:57:58.794Z,97.07
2022-12-13T16:00:34.540Z,97.28
2022-12-13T16:03:19.315Z,97.57
2022-12-13T16:05:57.486Z,98.00
2022-12-13T16:08:40.744Z,98.32
2022-12-13T16:11:13.049Z,98.15
2022-12-13T16:13:47.539Z,97.98
2022-12-13T16:16:30.771Z,97.89
2022-12-13T16:19:03.017Z,98.19
2022-12-13T16:21:37.184Z,97.70
2022-12-13T16:24:09.887Z,97.90
2022-12-13T16:26:47.296Z,97.26
2022-12-13T16:29:20.067Z,96.48
2022-12-13T16:31:54.891Z,96.61
2022-12-13T16:34:26.707Z,96.61
2022-12-13T16:37:00.719Z,96.75
2022-12-13T16:39:33.232Z,95.78
2022-12-13T16:42:06.199Z,96.37
2022-12-13T16:44:39.538Z,96.06
2022-12-13T16:47:24.399Z,96.75
2022-12-13T16:49:51.159Z,96.53
2022-12-13T16:52:23.586Z,95.90
2022-12-13T16:54:57.590Z,96.08
2022-12-13T16:57:30.005Z,96.10
2022-12-13T17:00:02.299Z,96.02
2022-12-13T17:02:34.909Z,96.03
2022-12-13T17:05:08.070Z,96.02
2022-12-13T17:07:40.430Z,95.55
2022-12-13T17:10:13.820Z,95.75
2022-12-13T17:12:47.920Z,95.90
2022-12-13T17:15:20.545Z,96.41
2022-12-13T17:17:55.377Z,96.75
2022-12-13T17:20:28.049Z,96.50
2022-12-13T17:23:01.652Z,96.47
2022-12-13T17:25:36.072Z,96.49
2022-12-13T17:28:08.568Z,96.14
2022-12-13T17:30:41.314Z,96.11
2022-12-13T17:33:14.493Z,96.63
2022-12-13T17:36:05.292Z,96.47
2022-12-13T17:39:01.520Z,96.53
2022-12-13T17:41:34.010Z,96.59
2022-12-13T17:44:07.048Z,96.00
2022-12-13T17:46:39.860Z,96.13
2022-12-13T17:49:13.082Z,95.86
2022-12-13T17:51:51.442Z,96.56
2022-12-13T17:54:20.055Z,96.31
2022-12-13T17:56:54.569Z,96.48
2022-12-13T17:59:28.132Z,96.65
2022-12-13T18:02:00.612Z,96.22
2022-12-13T18:04:33.002Z,95.83
2022-12-13T18:07:06.340Z,95.50
2022-12-13T18:09:39.144Z,95.29
2022-12-13T18:12:12.582Z,95.64
2022-12-13T18:14:45.138Z,94.95
2022-12-13T18:17:19.366Z,94.46
2022-12-13T18:19:52.291Z,94.70
2022-12-13T18:22:25.673Z,93.35
2022-12-13T18:24:58.324Z,92.84
2022-12-13T18:27:32.362Z,91.27
2022-12-13T18:30:05.068Z,87.76
2022-12-13T18:32:37.737Z,88.46
2022-12-13T18:35:10.340Z,87.28
2022-12-13T18:37:42.810Z,86.58
2022-12-13T18:40:15.282Z,86.33
2022-12-13T18:42:49.301Z,85.75
2022-12-13T18:45:21.682Z,85.21
2022-12-13T18:47:53.998Z,84.46
2022-12-13T18:50:26.463Z,84.58
2022-12-13T18:52:58.933Z,84.00
2022-12-13T18:55:31.748Z,83.40
2022-12-13T18:58:05.117Z,83.25
2022-12-13T19:00:37.656Z,82.39
2022-12-13T19:03:09.962Z,81.98
2022-12-13T19:05:43.031Z,82.29
2022-12-13T19:08:16.396Z,83.07
2022-12-13T19:10:49.847Z,83.01
2022-12-13T19:13:25.275Z,83.21
2022-12-13T19:15:59.548Z,83.27
2022-12-13T19:18:32.286Z,82.97
2022-12-13T19:21:08.502Z,84.03
2022-12-13T19:23:41.408Z,82.16
2022-12-13T19:26:15.452Z,83.03
2022-12-13T19:28:47.877Z,81.93
2022-12-13T19:31:23.058Z,82.64
2022-12-13T19:33:54.004Z,83.37
2022-12-13T19:36:26.297Z,83.25
2022-12-13T19:38:58.768Z,84.52
2022-12-13T19:41:32.454Z,85.15
2022-12-13T19:44:06.536Z,85.00
2022-12-13T19:46:40.097Z,85.46
2022-12-13T19:49:13.088Z,85.64
2022-12-13T19:51:46.766Z,85.80
2022-12-13T19:54:19.308Z,86.42
2022-12-13T19:56:53.365Z,86.30
2022-12-13T19:59:26.163Z,86.60
2022-12-13T20:01:59.023Z,87.48
2022-12-13T20:04:31.580Z,87.32
2022-12-13T20:07:06.495Z,87.07
2022-12-13T20:09:39.925Z,87.69
2022-12-13T20:12:15.727Z,87.33
2022-12-13T20:14:51.082Z,87.13
2022-12-13T20:17:24.598Z,87.27
2022-12-13T20:19:59.449Z,87.94
2022-12-13T20:22:33.873Z,88.52
2022-12-13T20:25:07.251Z,88.37
2022-12-13T20:27:41.880Z,88.65
2022-12-13T20:30:15.212Z,88.87
2022-12-13T20:32:47.546Z,87.92
2022-12-13T20:35:19.998Z,88.57
2022-12-13T20:37:52.723Z,89.17
2022-12-13T20:40:26.429Z,89.64
2022-12-13T20:42:58.682Z,89.19
2022-12-13T20:45:31.557Z,89.32
2022-12-13T20:48:05.358Z,89.33
2022-12-13T20:50:39.450Z,89.37
2022-12-13T20:53:12.047Z,89.47
2022-12-13T20:55:44.503Z,89.12
2022-12-13T20:58:18.840Z,89.53
2022-12-13T21:00:51.351Z,89.60
2022-12-13T21:03:25.381Z,89.52
2022-12-13T21:05:58.197Z,89.43
2022-12-13T21:08:49.016Z,89.29
2022-12-13T21:11:33.970Z,89.18
2022-12-13T21:14:23.314Z,89.25
2022-12-13T21:17:04.636Z,90.31
2022-12-13T21:19:40.454Z,90.17
2022-12-13T21:22:12.886Z,90.44
2022-12-13T21:24:47.087Z,90.35
2022-12-13T21:27:19.948Z,90.34
2022-12-13T21:29:52.466Z,89.80
2022-12-13T21:32:25.109Z,89.75
2022-12-13T21:34:57.801Z,89.95
2022-12-13T21:37:30.770Z,90.66
2022-12-13T21:40:03.410Z,90.69
2022-12-13T21:42:35.931Z,90.68
2022-12-13T21:45:09.278Z,90.76
2022-12-13T21:47:42.142Z,91.14
2022-12-13T21:50:14.993Z,91.17
2022-12-13T21:52:49.740Z,91.46
2022-12-13T21:55:38.836Z,90.82
2022-12-13T21:58:14.985Z,91.04
2022-12-13T22:00:48.817Z,90.93
2022-12-13T22:03:21.587Z,90.99
2022-12-13T22:05:54.068Z,90.54
2022-12-13T22:08:27.358Z,90.32
2022-12-13T22:11:21.285Z,90.16
2022-12-13T22:13:51.770Z,90.21
2022-12-13T22:16:24.849Z,90.20
2022-12-13T22:18:58.844Z,90.49
2022-12-13T22:21:31.795Z,90.54
2022-12-13T22:24:04.819Z,90.54
2022-12-13T22:26:39.121Z,90.97
2022-12-13T22:29:13.459Z,91.12
2022-12-13T22:31:48.813Z,91.52
2022-12-13T22:34:19.647Z,91.21
2022-12-13T22:36:51.790Z,91.13
2022-12-13T22:39:24.909Z,91.13
2022-12-13T22:41:57.243Z,91.13
2022-12-13T22:44:31.390Z,92.09
2022-12-13T22:47:05.261Z,91.96
2022-12-13T22:49:38.083Z,92.38
2022-12-13T22:52:10.380Z,93.08
2022-12-13T22:54:43.172Z,93.13
2022-12-13T22:57:15.461Z,93.17
2022-12-13T22:59:48.022Z,93.39
2022-12-13T23:02:21.229Z,93.21
2022-12-13T23:04:54.214Z,94.41
2022-12-13T23:07:26.999Z,94.21
2022-12-13T23:09:59.548Z,94.04
2022-12-13T23:12:49.990Z,94.40
2022-12-13T23:15:22.378Z,94.43
2022-12-13T23:17:54.851Z,94.40
2022-12-13T23:20:28.181Z,94.48
2022-12-13T23:23:00.611Z,94.65
2022-12-13T23:25:33.266Z,94.84
2022-12-13T23:28:05.610Z,95.75
2022-12-13T23:30:38.429Z,95.96
2022-12-13T23:33:11.029Z,95.49
2022-12-13T23:35:43.428Z,95.01
2022-12-13T23:38:15.927Z,95.06
2022-12-13T23:40:48.393Z,94.96
2022-12-13T23:43:20.872Z,95.12
2022-12-13T23:45:53.655Z,95.03
2022-12-13T23:48:27.159Z,95.48
2022-12-13T23:50:59.999Z,95.70
2022-12-13T23:53:32.927Z,95.87
2022-12-13T23:56:08.446Z,95.84
2022-12-13T23:58:41.877Z,96.43
